Time;durP1;ratioP1;P1;durP2;ratioP2;P2;SDS_P1;SDS_P2;PMS_P1;PMS_P2;Temp;Humidity;BMP_temperature;BMP_pressure;BME280_temperature;BME280_humidity;BME280_pressure;Samples;Min_cycle;Max_cycle;Signal;HPM_P1;HPM_P2
2021/07/25 00:00:05;;;;;;;14.98;5.45;;;;;;;15.29;100.00;95031.38;5039644;28;20045;-80
2021/07/25 00:02:32;;;;;;;11.85;6.68;;;;;;;15.32;100.00;95044.00;5038778;28;20041;-79
2021/07/25 00:04:58;;;;;;;9.57;5.20;;;;;;;15.28;100.00;95040.41;5038636;28;20038;-80
2021/07/25 00:07:23;;;;;;;13.15;5.47;;;;;;;15.31;100.00;95053.03;5035053;28;20082;-82
2021/07/25 00:09:49;;;;;;;12.98;5.75;;;;;;;15.39;100.00;95049.63;5043273;28;20525;-80
2021/07/25 00:12:14;;;;;;;11.85;5.22;;;;;;;15.32;100.00;95044.00;5044856;28;20103;-80
2021/07/25 00:14:40;;;;;;;10.20;5.60;;;;;;;15.54;100.00;95034.34;5030753;28;20053;-80
2021/07/25 00:17:05;;;;;;;12.73;5.82;;;;;;;15.49;100.00;95026.56;5033219;28;20105;-81
2021/07/25 00:19:31;;;;;;;9.45;5.07;;;;;;;15.27;100.00;95028.25;5037838;28;20060;-80
2021/07/25 00:21:57;;;;;;;10.88;5.65;;;;;;;15.18;100.00;95022.16;5039801;28;20551;-81
2021/07/25 00:24:29;;;;;;;10.68;5.22;;;;;;;15.20;100.00;95030.56;5052735;28;20032;-80
2021/07/25 00:26:56;;;;;;;10.68;5.28;;;;;;;15.19;100.00;95029.03;5033053;28;20045;-81
2021/07/25 00:29:22;;;;;;;15.45;6.15;;;;;;;15.35;100.00;95032.00;5039187;28;20052;-81
2021/07/25 00:31:48;;;;;;;11.60;5.35;;;;;;;15.45;100.00;95036.22;5037465;28;20046;-80
2021/07/25 00:34:14;;;;;;;10.20;5.20;;;;;;;15.46;100.00;95029.81;5032182;28;20042;-81
2021/07/25 00:36:39;;;;;;;13.23;5.95;;;;;;;15.49;100.00;95037.16;5041293;28;20044;-81
2021/07/25 00:39:10;;;;;;;9.90;5.63;;;;;;;15.33;100.00;95055.38;5040396;28;20045;-81
2021/07/25 00:41:36;;;;;;;13.88;6.13;;;;;;;15.27;100.00;95057.41;5036643;28;20041;-80
2021/07/25 00:44:02;;;;;;;15.25;6.50;;;;;;;15.48;100.00;95059.44;5039451;28;20055;-80
2021/07/25 00:46:28;;;;;;;12.30;6.07;;;;;;;15.47;100.00;95039.31;5039440;28;20116;-81
2021/07/25 00:48:56;;;;;;;12.50;6.22;;;;;;;15.35;100.00;95029.34;5040875;28;20041;-79
2021/07/25 00:51:23;;;;;;;10.27;5.15;;;;;;;15.51;100.00;95024.34;5040210;28;20129;-81
2021/07/25 00:53:49;;;;;;;11.13;5.97;;;;;;;15.42;100.00;95011.88;5028715;28;20065;-80
2021/07/25 00:56:16;;;;;;;16.10;6.63;;;;;;;15.31;100.00;95010.63;5039393;28;20041;-80
2021/07/25 00:58:43;;;;;;;13.15;6.45;;;;;;;15.31;100.00;94999.25;5030929;28;20414;-81
2021/07/25 01:01:11;;;;;;;13.45;6.30;;;;;;;15.39;100.00;94985.22;5028914;28;20099;-80
2021/07/25 01:03:46;;;;;;;11.00;6.00;;;;;;;15.55;100.00;95009.38;5038901;28;20044;-81
2021/07/25 01:06:49;;;;;;;11.40;5.72;;;;;;;15.71;100.00;95015.75;5052777;28;20041;-79
2021/07/25 01:09:42;;;;;;;15.73;5.80;;;;;;;15.68;100.00;95013.72;5050890;28;20044;-80
2021/07/25 01:12:16;;;;;;;11.95;5.78;;;;;;;15.64;100.00;95012.03;5036098;28;20045;-80
2021/07/25 01:14:43;;;;;;;13.00;6.78;;;;;;;15.57;100.00;95012.50;5036121;28;20045;-79
2021/07/25 01:17:31;;;;;;;10.75;5.78;;;;;;;15.47;100.00;94999.56;5030862;28;20056;-80
2021/07/25 01:20:02;;;;;;;13.35;6.50;;;;;;;15.32;100.00;95001.56;5038838;28;20450;-80
2021/07/25 01:22:32;;;;;;;13.73;6.88;;;;;;;15.29;100.00;94996.91;5054745;28;20725;-80
2021/07/25 01:24:57;;;;;;;14.73;6.68;;;;;;;15.07;100.00;94995.94;5040663;28;20046;-81
2021/07/25 01:27:28;;;;;;;16.58;7.38;;;;;;;15.22;100.00;94993.94;5055866;28;20498;-80
2021/07/25 01:29:57;;;;;;;14.90;6.82;;;;;;;15.34;100.00;94983.50;5032234;28;20040;-81
2021/07/25 01:32:26;;;;;;;12.25;6.60;;;;;;;15.39;100.00;94980.69;5036557;28;20073;-81
2021/07/25 01:34:54;;;;;;;13.70;6.35;;;;;;;15.40;100.00;94992.84;5028063;28;20550;-81
2021/07/25 01:37:21;;;;;;;13.95;6.28;;;;;;;15.34;100.00;94974.75;5035005;28;20088;-78
2021/07/25 01:39:46;;;;;;;13.07;6.63;;;;;;;15.23;100.00;94966.34;5038615;28;20045;-78
2021/07/25 01:42:12;;;;;;;13.65;6.22;;;;;;;15.33;100.00;94981.94;5035015;28;20052;-78
2021/07/25 01:44:37;;;;;;;15.57;6.07;;;;;;;15.50;100.00;94993.63;5035770;28;20115;-80
2021/07/25 01:47:04;;;;;;;13.02;7.00;;;;;;;15.62;100.00;94988.47;5039054;28;20044;-79
2021/07/25 01:49:29;;;;;;;14.88;6.38;;;;;;;15.54;100.00;94986.59;5028641;28;20040;-79
2021/07/25 01:51:54;;;;;;;14.73;6.70;;;;;;;15.47;100.00;94981.00;5031825;28;20044;-80
2021/07/25 01:54:20;;;;;;;11.82;6.07;;;;;;;15.55;100.00;94988.16;5030752;28;20045;-80
2021/07/25 01:56:46;;;;;;;12.00;5.97;;;;;;;15.57;100.00;94986.75;5041603;28;20048;-79
2021/07/25 01:59:11;;;;;;;12.10;6.30;;;;;;;15.47;100.00;94999.56;5040178;28;20098;-81
2021/07/25 02:01:37;;;;;;;17.38;6.68;;;;;;;15.45;100.00;95009.69;5037355;28;20096;-79
2021/07/25 02:04:02;;;;;;;13.25;6.00;;;;;;;15.50;100.00;95014.81;5032780;28;20065;-78
2021/07/25 02:06:28;;;;;;;15.07;6.45;;;;;;;15.39;100.00;95007.19;5027946;28;20102;-79
2021/07/25 02:08:54;;;;;;;13.20;6.40;;;;;;;15.37;100.00;94997.97;5031156;28;20037;-80
2021/07/25 02:11:19;;;;;;;14.07;6.90;;;;;;;15.24;100.00;94989.09;5040717;28;20573;-78
2021/07/25 02:13:45;;;;;;;17.70;6.35;;;;;;;15.06;100.00;94994.38;5040174;28;20041;-79
2021/07/25 02:16:10;;;;;;;13.95;7.10;;;;;;;15.24;100.00;94997.03;5052488;28;20037;-80
2021/07/25 02:18:36;;;;;;;11.98;6.53;;;;;;;15.26;100.00;94981.63;5034544;28;20041;-78
2021/07/25 02:21:01;;;;;;;12.20;7.10;;;;;;;15.37;100.00;94982.06;5039285;28;20095;-79
2021/07/25 02:23:27;;;;;;;13.45;6.72;;;;;;;15.35;100.00;94990.34;5041409;28;20405;-80
2021/07/25 02:25:52;;;;;;;14.05;6.57;;;;;;;15.49;100.00;95000.03;5052975;28;20042;-78
2021/07/25 02:28:18;;;;;;;15.80;6.68;;;;;;;15.52;100.00;95012.66;5042102;28;20065;-79
2021/07/25 02:30:43;;;;;;;11.82;6.25;;;;;;;15.49;100.00;95015.94;5054660;28;20455;-78
2021/07/25 02:33:10;;;;;;;17.83;5.85;;;;;;;15.37;100.00;95014.69;5045901;28;20045;-79
2021/07/25 02:35:35;;;;;;;14.68;5.65;;;;;;;15.37;100.00;95020.00;5035318;28;20135;-80
2021/07/25 02:38:01;;;;;;;14.80;6.45;;;;;;;15.29;100.00;95012.81;5040177;28;20045;-80
2021/07/25 02:40:26;;;;;;;11.90;6.60;;;;;;;15.27;100.00;95019.50;5045328;28;20044;-79
2021/07/25 02:42:52;;;;;;;11.90;5.75;;;;;;;15.32;100.00;95022.03;5037808;28;20041;-78
2021/07/25 02:45:17;;;;;;;12.52;5.78;;;;;;;15.36;100.00;95018.44;5035370;28;20124;-79
2021/07/25 02:47:43;;;;;;;11.93;6.18;;;;;;;15.47;100.00;95034.03;5031423;28;20037;-79
2021/07/25 02:50:09;;;;;;;13.48;6.13;;;;;;;15.40;100.00;95045.88;5032812;28;20065;-80
2021/07/25 02:52:36;;;;;;;12.60;6.65;;;;;;;15.41;100.00;95042.16;5041901;28;20044;-81
2021/07/25 02:55:03;;;;;;;13.95;7.13;;;;;;;15.29;100.00;95041.97;5042207;28;20456;-80
2021/07/25 02:57:28;;;;;;;11.95;6.45;;;;;;;15.36;100.00;95047.59;5044518;28;20073;-80
2021/07/25 02:59:54;;;;;;;14.52;7.30;;;;;;;15.29;100.00;95065.81;5036977;28;20565;-80
2021/07/25 03:02:19;;;;;;;15.63;6.75;;;;;;;15.34;100.00;95072.84;5035217;28;20034;-80
2021/07/25 03:04:47;;;;;;;16.05;6.72;;;;;;;15.41;100.00;95073.16;5046982;28;20054;-80
2021/07/25 03:07:14;;;;;;;14.45;6.60;;;;;;;15.44;100.00;95067.22;5033140;28;20353;-80
2021/07/25 03:09:40;;;;;;;14.15;6.47;;;;;;;15.45;100.00;95062.72;5040637;28;20049;-81
2021/07/25 03:12:05;;;;;;;12.75;6.28;;;;;;;15.46;100.00;95069.56;5039397;28;20045;-80
2021/07/25 03:14:31;;;;;;;13.88;5.55;;;;;;;15.44;100.00;95061.16;5047938;28;20475;-80
2021/07/25 03:16:57;;;;;;;13.32;5.65;;;;;;;15.47;100.00;95055.22;5062329;28;20128;-81
2021/07/25 03:19:22;;;;;;;11.95;6.25;;;;;;;15.38;100.00;95058.66;5039225;28;20079;-81
2021/07/25 03:21:48;;;;;;;13.68;5.70;;;;;;;15.36;100.00;95050.25;5033044;28;20033;-79
2021/07/25 03:24:14;;;;;;;18.38;5.72;;;;;;;15.36;100.00;95050.25;5037390;28;20410;-79
2021/07/25 03:26:39;;;;;;;16.73;5.80;;;;;;;15.37;100.00;95051.81;5039947;28;20509;-79
2021/07/25 03:29:05;;;;;;;10.57;5.72;;;;;;;15.37;100.00;95035.91;5039583;28;20124;-78
2021/07/25 03:31:30;;;;;;;13.35;6.32;;;;;;;15.44;100.00;95034.66;5040307;28;20036;-79
2021/07/25 03:33:58;;;;;;;12.57;5.57;;;;;;;15.48;100.00;95035.59;5041580;28;20438;-79
2021/07/25 03:36:24;;;;;;;12.82;5.30;;;;;;;15.56;100.00;95037.47;5045730;28;20048;-78
2021/07/25 03:38:50;;;;;;;13.40;5.28;;;;;;;15.76;99.88;95047.44;5031499;28;20384;-78
2021/07/25 03:41:16;;;;;;;15.23;5.60;;;;;;;15.80;98.29;95068.81;5035828;28;20312;-78
2021/07/25 03:43:41;;;;;;;11.55;5.82;;;;;;;15.81;98.21;95069.63;5042450;28;20041;-78
2021/07/25 03:46:07;;;;;;;11.10;5.82;;;;;;;15.75;99.80;95067.09;5038804;28;20053;-78
2021/07/25 03:48:32;;;;;;;14.55;5.85;;;;;;;15.56;100.00;95053.38;5042597;28;20123;-77
2021/07/25 03:50:58;;;;;;;16.70;6.03;;;;;;;15.63;100.00;95068.81;5035434;28;20041;-78
2021/07/25 03:53:23;;;;;;;9.77;5.72;;;;;;;15.76;99.27;95073.97;5046652;28;20048;-78
2021/07/25 03:55:49;;;;;;;10.48;6.00;;;;;;;15.83;98.43;95078.03;5034920;28;20103;-79
2021/07/25 03:58:15;;;;;;;11.68;5.30;;;;;;;15.85;98.43;95081.19;5037693;28;20113;-78
2021/07/25 04:00:40;;;;;;;15.20;5.82;;;;;;;15.86;98.48;95094.13;5035624;28;20037;-78
2021/07/25 04:03:06;;;;;;;11.65;5.53;;;;;;;15.69;99.04;95100.19;5034468;28;20538;-77
2021/07/25 04:05:32;;;;;;;10.55;5.50;;;;;;;15.62;99.43;95105.16;5037961;28;20041;-79
2021/07/25 04:07:58;;;;;;;13.90;5.82;;;;;;;15.70;99.11;95107.06;5041039;28;20107;-79
2021/07/25 04:10:23;;;;;;;10.75;5.80;;;;;;;15.67;99.78;95097.03;5038007;28;20484;-79
2021/07/25 04:12:49;;;;;;;12.25;5.50;;;;;;;15.63;99.18;95112.03;5044791;28;20045;-80
2021/07/25 04:15:14;;;;;;;15.77;5.65;;;;;;;15.51;99.84;95117.16;5045179;28;20055;-81
2021/07/25 04:17:40;;;;;;;13.32;5.88;;;;;;;15.46;99.97;95106.69;5045534;28;20041;-80
2021/07/25 04:20:06;;;;;;;14.13;5.53;;;;;;;15.48;99.61;95109.84;5035669;28;20045;-81
2021/07/25 04:22:36;;;;;;;13.98;5.85;;;;;;;15.46;99.37;95106.69;5040325;28;20099;-80
2021/07/25 04:25:06;;;;;;;11.13;5.25;;;;;;;15.49;99.85;95106.09;5034076;28;20064;-81
2021/07/25 04:27:32;;;;;;;11.50;5.78;;;;;;;15.50;98.94;95107.63;5045179;28;20044;-79
2021/07/25 04:29:58;;;;;;;14.00;5.80;;;;;;;15.50;99.66;95107.63;5045128;28;20049;-80
2021/07/25 04:32:24;;;;;;;12.63;5.75;;;;;;;15.55;99.54;95108.28;5042191;28;20052;-80
2021/07/25 04:34:51;;;;;;;10.88;5.65;;;;;;;15.47;100.00;95092.34;5035888;28;20099;-80
2021/07/25 04:37:25;;;;;;;12.45;5.53;;;;;;;15.60;100.00;95094.06;5028722;28;20121;-81
2021/07/25 04:39:51;;;;;;;13.70;6.03;;;;;;;15.66;99.63;95100.81;5037260;28;20042;-81
2021/07/25 04:42:17;;;;;;;13.63;5.78;;;;;;;15.61;100.00;95097.53;5031038;28;20042;-80
2021/07/25 04:44:53;;;;;;;12.52;6.22;;;;;;;15.61;99.48;95095.66;5034064;28;20041;-80
2021/07/25 04:47:29;;;;;;;15.50;5.45;;;;;;;15.61;100.00;95098.28;5041897;28;20407;-81
2021/07/25 04:50:15;;;;;;;12.40;5.63;;;;;;;15.69;99.02;95100.19;5040295;28;20033;-81
2021/07/25 04:52:42;;;;;;;13.20;6.30;;;;;;;15.61;99.80;95092.22;5048795;28;20040;-81
2021/07/25 04:55:10;;;;;;;11.93;5.70;;;;;;;15.63;99.99;95085.53;5038754;28;20498;-82
2021/07/25 04:57:39;;;;;;;14.98;5.90;;;;;;;15.69;99.44;95086.91;5054094;28;20052;-80
2021/07/25 05:00:05;;;;;;;16.13;6.35;;;;;;;15.73;99.15;95095.81;5032238;28;20040;-81
2021/07/25 05:02:34;;;;;;;12.50;6.30;;;;;;;15.67;99.18;95083.78;5033618;28;20041;-81
2021/07/25 05:05:02;;;;;;;16.05;6.50;;;;;;;15.64;99.85;95081.75;5029921;28;20049;-80
2021/07/25 05:07:34;;;;;;;12.50;5.13;;;;;;;15.59;100.00;95084.56;5032364;28;20532;-80
2021/07/25 05:10:00;;;;;;;10.80;5.70;;;;;;;15.74;100.00;95070.06;5037418;28;20116;-81
2021/07/25 05:12:47;;;;;;;13.65;5.82;;;;;;;15.86;99.39;95077.41;5033178;28;20166;-81
2021/07/25 05:15:21;;;;;;;13.15;6.05;;;;;;;15.93;99.71;95078.50;5051153;28;20068;-80
2021/07/25 05:17:56;;;;;;;8.68;5.32;;;;;;;15.95;98.51;95080.84;5060334;28;20571;-80
2021/07/25 05:20:31;;;;;;;11.73;5.85;;;;;;;15.92;99.01;95081.47;5032288;28;20044;-81
2021/07/25 05:23:20;;;;;;;12.50;5.88;;;;;;;15.97;98.35;95081.31;5030116;28;20525;-80
2021/07/25 05:25:51;;;;;;;10.65;5.93;;;;;;;16.00;98.95;95082.56;5035211;28;20435;-81
2021/07/25 05:28:22;;;;;;;14.45;5.82;;;;;;;16.05;99.87;95085.84;5029085;28;20387;-80
2021/07/25 05:30:53;;;;;;;9.02;5.93;;;;;;;16.18;98.75;95088.63;5029389;28;20052;-80
2021/07/25 05:33:23;;;;;;;15.15;6.22;;;;;;;16.23;98.34;95101.72;5037801;28;20041;-81
2021/07/25 05:35:49;;;;;;;11.20;5.90;;;;;;;16.24;98.43;95084.72;5038899;28;20037;-80
2021/07/25 05:38:16;;;;;;;15.32;6.07;;;;;;;16.29;98.87;95084.53;5037382;28;20037;-81
2021/07/25 05:40:42;;;;;;;13.55;6.50;;;;;;;16.32;97.23;95083.94;5034432;28;20048;-80
2021/07/25 05:43:08;;;;;;;10.50;5.93;;;;;;;16.24;99.20;95076.75;5042912;28;20410;-80
2021/07/25 05:45:33;;;;;;;11.73;5.95;;;;;;;16.24;99.14;95082.06;5035832;28;20037;-80
2021/07/25 05:47:59;;;;;;;11.57;6.10;;;;;;;16.23;100.00;95080.50;5037515;28;20621;-81
2021/07/25 05:50:25;;;;;;;10.40;6.28;;;;;;;16.32;100.00;95089.22;5033942;28;20037;-81
2021/07/25 05:52:53;;;;;;;10.68;6.00;;;;;;;16.51;97.41;95093.41;5043468;28;20116;-81
2021/07/25 05:55:22;;;;;;;10.07;6.15;;;;;;;16.57;98.03;95097.44;5035698;28;20052;-81
2021/07/25 05:57:49;;;;;;;13.02;6.65;;;;;;;16.59;98.45;95103.22;5038796;28;20104;-81
2021/07/25 06:00:14;;;;;;;10.98;6.43;;;;;;;16.52;98.99;95108.22;5049774;28;20055;-80
2021/07/25 06:03:00;;;;;;;15.43;6.40;;;;;;;16.69;97.88;95102.84;5037283;28;20499;-81
2021/07/25 06:05:36;;;;;;;11.52;6.00;;;;;;;16.73;97.37;95117.06;5042294;28;20041;-81
2021/07/25 06:08:08;;;;;;;16.38;6.50;;;;;;;16.74;97.75;95115.97;5036063;28;20099;-80
2021/07/25 06:10:35;;;;;;;13.80;6.10;;;;;;;16.87;97.49;95118.75;5035657;28;20037;-81
2021/07/25 06:13:04;;;;;;;13.75;6.38;;;;;;;16.95;96.73;95107.31;5037965;28;20529;-81
2021/07/25 06:15:31;;;;;;;11.02;6.32;;;;;;;16.97;96.21;95113.13;5045141;28;20040;-80
2021/07/25 06:17:57;;;;;;;13.48;6.25;;;;;;;17.08;94.90;95109.00;5031936;28;20049;-81
2021/07/25 06:20:23;;;;;;;12.18;6.18;;;;;;;17.17;94.42;95100.19;5041422;28;20533;-80
2021/07/25 06:22:51;;;;;;;8.77;5.95;;;;;;;17.00;95.54;95096.53;5042339;28;20060;-81
2021/07/25 06:25:20;;;;;;;11.35;6.30;;;;;;;16.79;97.74;95102.53;5042288;28;20064;-81
2021/07/25 06:27:48;;;;;;;14.50;6.60;;;;;;;16.89;96.96;95100.63;5044261;28;20041;-80
2021/07/25 06:30:14;;;;;;;11.30;5.80;;;;;;;17.20;96.00;95096.91;5044120;28;20462;-80
2021/07/25 06:33:00;;;;;;;10.93;5.70;;;;;;;17.22;95.38;95097.34;5031370;28;20049;-80
2021/07/25 06:35:27;;;;;;;11.80;6.10;;;;;;;17.17;96.84;95094.88;5037355;28;20040;-81
2021/07/25 06:37:52;;;;;;;12.43;5.90;;;;;;;17.16;97.45;95083.47;5036889;28;20049;-80
2021/07/25 06:40:18;;;;;;;10.20;6.05;;;;;;;17.27;94.30;95081.22;5043327;28;20491;-81
2021/07/25 06:42:44;;;;;;;10.80;5.75;;;;;;;17.16;95.08;95072.06;5028956;28;21775;-81
2021/07/25 06:45:10;;;;;;;10.55;6.45;;;;;;;17.25;96.91;95081.50;5048234;28;20064;-79
2021/07/25 06:47:36;;;;;;;12.48;6.20;;;;;;;17.31;94.45;95074.13;5052120;28;20112;-81
2021/07/25 06:50:01;;;;;;;12.13;6.20;;;;;;;17.19;95.91;95084.69;5044242;28;20041;-77
2021/07/25 06:52:27;;;;;;;11.35;6.05;;;;;;;17.33;93.01;95077.25;5052760;28;20036;-77
2021/07/25 06:54:52;;;;;;;10.60;6.32;;;;;;;17.22;96.02;95068.09;5040214;28;20045;-77
2021/07/25 06:57:17;;;;;;;9.85;5.95;;;;;;;17.31;97.55;95063.50;5044808;28;20046;-78
2021/07/25 06:59:43;;;;;;;15.75;6.47;;;;;;;17.17;95.64;95073.59;5046381;28;20037;-77
2021/07/25 07:02:08;;;;;;;14.30;6.38;;;;;;;17.14;95.43;95065.16;5041228;28;20051;-81
2021/07/25 07:04:34;;;;;;;11.35;6.00;;;;;;;17.56;93.04;95063.66;5047764;28;20037;-82
2021/07/25 07:07:00;;;;;;;10.52;5.85;;;;;;;17.74;94.97;95059.75;5041004;28;20053;-79
2021/07/25 07:09:25;;;;;;;11.35;5.55;;;;;;;17.82;94.61;95056.22;5040330;28;20090;-79
2021/07/25 07:11:50;;;;;;;11.98;6.38;;;;;;;17.65;95.26;95056.38;5037702;28;20068;-80
2021/07/25 07:14:16;;;;;;;22.55;7.25;;;;;;;17.57;96.44;95059.88;5042154;28;20413;-80
2021/07/25 07:16:41;;;;;;;11.77;6.28;;;;;;;17.57;96.08;95052.69;5042907;28;20041;-81
2021/07/25 07:19:07;;;;;;;11.48;6.07;;;;;;;17.94;93.12;95052.09;5040368;28;20057;-80
2021/07/25 07:21:33;;;;;;;12.25;6.25;;;;;;;17.92;93.28;95059.63;5041458;28;20067;-81
2021/07/25 07:23:58;;;;;;;12.15;5.95;;;;;;;17.87;92.60;95062.47;5042758;28;20483;-81
2021/07/25 07:26:24;;;;;;;10.80;5.85;;;;;;;17.92;91.09;95064.97;5035732;28;20074;-83
2021/07/25 07:28:50;;;;;;;11.07;6.13;;;;;;;17.78;95.37;95065.97;5048921;28;20309;-79
2021/07/25 07:31:15;;;;;;;11.65;6.43;;;;;;;17.78;93.46;95065.97;5051249;28;20047;-79
2021/07/25 07:33:41;;;;;;;9.15;5.70;;;;;;;17.74;89.09;95065.09;5035912;28;20048;-79
2021/07/25 07:36:06;;;;;;;10.60;5.75;;;;;;;17.86;89.85;95056.38;5046784;28;20091;-80
2021/07/25 07:38:32;;;;;;;12.50;6.40;;;;;;;17.98;94.56;95063.66;5037160;28;20253;-78
2021/07/25 07:40:57;;;;;;;11.50;6.32;;;;;;;18.55;90.28;95074.66;5003125;28;1091945;-77
2021/07/25 07:43:23;;;;;;;13.25;5.95;;;;;;;18.86;87.51;95080.28;5032456;28;20064;-78
2021/07/25 07:45:50;;;;;;;12.65;5.78;;;;;;;18.80;86.42;95070.91;5040502;28;20041;-78
2021/07/25 07:48:18;;;;;;;10.30;5.10;;;;;;;19.13;83.21;95067.38;5032015;28;20112;-78
2021/07/25 07:50:43;;;;;;;17.15;5.88;;;;;;;18.95;84.21;95071.38;5034356;28;20094;-77
2021/07/25 07:53:09;;;;;;;10.02;5.70;;;;;;;18.80;89.56;95070.91;5043412;28;20494;-78
2021/07/25 07:55:35;;;;;;;15.52;5.85;;;;;;;18.91;90.64;95075.84;5031882;28;20041;-79
2021/07/25 07:58:00;;;;;;;11.13;5.93;;;;;;;19.01;85.86;95080.75;5033209;28;20124;-80
2021/07/25 08:00:26;;;;;;;9.02;5.22;;;;;;;19.34;84.41;95082.50;5038276;28;20048;-80
2021/07/25 08:02:51;;;;;;;16.88;6.43;;;;;;;19.00;90.77;95095.19;5038884;28;20137;-78
2021/07/25 08:05:18;;;;;;;9.63;5.47;;;;;;;19.19;85.26;95098.06;5037892;28;20045;-77
2021/07/25 08:07:44;;;;;;;10.05;5.32;;;;;;;19.20;86.85;95099.59;5040810;28;20042;-77
2021/07/25 08:10:10;;;;;;;9.30;5.70;;;;;;;19.69;81.78;95108.66;5049537;28;20090;-77
2021/07/25 08:12:36;;;;;;;10.60;6.00;;;;;;;19.67;88.45;95118.91;5038610;28;20097;-78
2021/07/25 08:15:03;;;;;;;9.18;5.05;;;;;;;20.04;75.94;95130.28;5041482;28;20044;-78
2021/07/25 08:17:29;;;;;;;10.63;5.50;;;;;;;19.88;80.34;95127.56;5040969;28;20056;-77
2021/07/25 08:19:54;;;;;;;12.15;6.78;;;;;;;19.73;82.84;95120.22;5032384;28;20033;-79
2021/07/25 08:22:20;;;;;;;13.82;5.80;;;;;;;19.74;81.57;95116.44;5032540;28;20045;-83
2021/07/25 08:24:46;;;;;;;9.40;5.45;;;;;;;19.58;79.15;95123.59;5034031;28;20672;-77
2021/07/25 08:27:12;;;;;;;12.52;5.78;;;;;;;19.63;84.30;95115.34;5041624;28;20045;-77
2021/07/25 08:29:39;;;;;;;12.32;5.70;;;;;;;19.47;81.74;95118.72;5040888;28;20041;-77
2021/07/25 08:32:05;;;;;;;8.20;5.13;;;;;;;19.56;82.56;95114.00;5034708;28;20041;-77
2021/07/25 08:34:31;;;;;;;11.10;6.05;;;;;;;19.47;80.45;95113.38;5030339;28;20044;-77
2021/07/25 08:36:57;;;;;;;14.15;5.10;;;;;;;19.71;78.88;95111.75;5040584;28;20045;-77
2021/07/25 08:39:22;;;;;;;10.10;5.10;;;;;;;19.82;78.37;95112.88;5047813;28;20752;-77
2021/07/25 08:42:07;;;;;;;9.43;5.15;;;;;;;19.86;77.02;95099.66;5038562;28;20144;-77
2021/07/25 08:44:49;;;;;;;11.63;6.25;;;;;;;19.97;80.55;95098.06;5039049;28;20072;-77
2021/07/25 08:47:25;;;;;;;9.98;5.07;;;;;;;20.01;78.77;95092.78;5036969;28;20045;-78
2021/07/25 08:50:02;;;;;;;11.73;5.68;;;;;;;20.11;77.02;95097.66;5046552;28;20048;-76
2021/07/25 08:52:31;;;;;;;8.77;5.13;;;;;;;19.96;78.67;95101.06;5039212;28;20059;-78
2021/07/25 08:54:59;;;;;;;10.48;5.70;;;;;;;20.30;75.36;95107.72;5051626;28;20045;-80
2021/07/25 08:57:29;;;;;;;11.32;5.55;;;;;;;20.24;76.75;95096.50;5032612;28;20526;-77
2021/07/25 08:59:56;;;;;;;10.73;5.53;;;;;;;20.30;82.94;95093.56;5054957;28;20095;-77
2021/07/25 09:02:29;;;;;;;9.23;5.63;;;;;;;20.11;86.55;95097.66;5038050;28;20407;-77
2021/07/25 09:04:57;;;;;;;9.20;5.70;;;;;;;19.95;77.66;95088.81;5044625;28;20056;-77
2021/07/25 09:07:25;;;;;;;11.02;5.75;;;;;;;19.78;78.62;95095.19;5044515;28;20303;-78
2021/07/25 09:09:53;;;;;;;9.85;5.75;;;;;;;19.84;86.45;95089.31;5058216;28;20461;-79
2021/07/25 09:12:20;;;;;;;8.45;5.10;;;;;;;20.60;79.45;95092.06;5033132;28;20041;-79
2021/07/25 09:14:55;;;;;;;9.70;5.78;;;;;;;20.71;77.60;95080.88;5044222;28;20091;-77
2021/07/25 09:17:21;;;;;;;10.85;5.85;;;;;;;20.52;80.92;95079.63;5043135;28;20037;-78
2021/07/25 09:20:16;;;;;;;10.93;6.05;;;;;;;20.28;80.54;95071.75;5036663;28;20178;-76
2021/07/25 09:22:48;;;;;;;10.50;5.95;;;;;;;20.35;81.47;95075.38;5040472;28;20070;-75
2021/07/25 09:25:25;;;;;;;11.30;5.65;;;;;;;20.28;82.21;95074.44;5050012;28;20033;-75
2021/07/25 09:27:54;;;;;;;11.25;5.60;;;;;;;20.44;80.00;95067.19;5039475;28;20449;-76
2021/07/25 09:30:20;;;;;;;9.48;5.93;;;;;;;20.23;75.44;95062.88;5030706;28;20044;-76
2021/07/25 09:32:46;;;;;;;9.65;5.55;;;;;;;20.36;82.06;95073.50;5036211;28;20049;-76
2021/07/25 09:35:25;;;;;;;8.95;5.40;;;;;;;20.52;83.88;95074.28;5039887;28;20116;-77
2021/07/25 09:37:52;;;;;;;9.45;5.53;;;;;;;20.51;83.13;95078.06;5052415;28;20716;-79
2021/07/25 09:40:26;;;;;;;10.45;4.78;;;;;;;20.82;73.58;95081.94;5037509;28;20045;-79
2021/07/25 09:43:09;;;;;;;10.82;4.95;;;;;;;20.98;77.09;95086.50;5038325;28;20041;-76
2021/07/25 09:45:57;;;;;;;8.43;4.70;;;;;;;20.79;76.84;95077.28;5033157;28;20033;-77
2021/07/25 09:48:33;;;;;;;8.75;5.25;;;;;;;20.54;72.40;95074.75;5032252;28;20109;-77
2021/07/25 09:51:01;;;;;;;7.68;5.10;;;;;;;21.22;73.42;95062.22;5032112;28;20131;-76
2021/07/25 09:53:44;;;;;;;11.80;6.65;;;;;;;21.29;79.54;95067.72;5029156;28;20057;-76
2021/07/25 09:56:14;;;;;;;7.97;5.40;;;;;;;21.35;76.12;95062.06;5029915;28;20484;-76
2021/07/25 09:58:40;;;;;;;10.90;5.32;;;;;;;21.18;76.76;95049.88;5030097;28;20103;-76
2021/07/25 10:01:06;;;;;;;10.00;4.90;;;;;;;21.15;76.18;95051.34;5040811;28;20068;-77
2021/07/25 10:03:35;;;;;;;8.88;4.50;;;;;;;21.18;75.43;95050.66;5041987;28;20585;-77
2021/07/25 10:06:21;;;;;;;12.07;5.45;;;;;;;21.22;78.97;95040.81;5041348;28;20045;-77
2021/07/25 10:08:47;;;;;;;9.52;4.85;;;;;;;21.10;77.85;95032.88;5041488;28;20041;-77
2021/07/25 10:11:20;;;;;;;10.10;4.78;;;;;;;20.88;77.76;95043.09;5031511;28;20111;-77
2021/07/25 10:13:50;;;;;;;8.82;4.85;;;;;;;21.17;75.52;95037.63;5031125;28;20118;-77
2021/07/25 10:16:20;;;;;;;10.77;5.10;;;;;;;21.24;81.32;95041.22;5029713;28;20048;-76
2021/07/25 10:18:47;;;;;;;10.13;4.97;;;;;;;21.83;74.73;95035.19;5030915;28;20040;-77
2021/07/25 10:21:13;;;;;;;9.27;4.95;;;;;;;21.88;73.62;95027.63;5032280;28;20045;-76
2021/07/25 10:23:55;;;;;;;11.38;4.80;;;;;;;21.83;74.95;95030.59;5028741;28;20561;-76
2021/07/25 10:26:24;;;;;;;10.02;4.53;;;;;;;22.03;74.40;95022.53;5032200;28;20037;-76
2021/07/25 10:28:53;;;;;;;10.73;4.75;;;;;;;21.72;74.63;95018.88;5028619;28;20449;-76
2021/07/25 10:31:21;;;;;;;7.80;4.55;;;;;;;21.86;73.30;95019.16;5031817;28;20124;-76
2021/07/25 10:33:48;;;;;;;11.10;4.75;;;;;;;21.86;74.41;95019.16;5030540;28;20135;-76
2021/07/25 10:36:16;;;;;;;7.57;4.78;;;;;;;21.83;82.35;95017.19;5035460;28;20052;-77
2021/07/25 10:38:42;;;;;;;10.52;4.75;;;;;;;22.17;74.33;95012.09;5032733;28;20045;-76
2021/07/25 10:41:09;;;;;;;7.88;4.72;;;;;;;22.50;71.13;95013.44;5035316;28;20048;-75
2021/07/25 10:43:36;;;;;;;8.90;5.03;;;;;;;22.72;68.38;95003.81;5038337;28;20418;-79
2021/07/25 10:46:13;;;;;;;9.77;4.72;;;;;;;22.71;72.35;95006.84;5032399;28;20171;-76
2021/07/25 10:49:03;;;;;;;7.72;4.70;;;;;;;22.50;69.49;95002.72;5035642;28;20108;-78
2021/07/25 10:51:30;;;;;;;7.90;4.75;;;;;;;23.20;66.40;95000.69;5046278;28;20056;-75
2021/07/25 10:54:23;;;;;;;7.30;4.60;;;;;;;23.15;69.54;95003.69;5043492;28;20044;-77
2021/07/25 10:57:10;;;;;;;9.52;4.47;;;;;;;23.26;64.99;95004.63;5048548;28;20517;-77
2021/07/25 10:59:41;;;;;;;10.10;4.38;;;;;;;23.35;67.38;95002.44;5037674;28;20045;-76
2021/07/25 11:02:12;;;;;;;7.00;4.47;;;;;;;23.53;65.15;95017.97;5044914;28;20049;-79
2021/07/25 11:04:50;;;;;;;7.32;4.47;;;;;;;23.33;65.73;95020.03;5041786;28;20037;-76
2021/07/25 11:07:22;;;;;;;7.15;4.47;;;;;;;23.05;68.85;95025.75;5041256;28;20037;-77
2021/07/25 11:10:05;;;;;;;8.50;5.10;;;;;;;22.72;66.99;95019.16;5042964;28;20048;-77
2021/07/25 11:12:51;;;;;;;9.10;5.32;;;;;;;23.14;69.07;95012.88;5038277;28;20091;-77
2021/07/25 11:18:03;;;;;;;9.60;4.90;;;;;;;23.00;66.66;94998.09;5035323;28;20041;-77
2021/07/25 11:20:37;;;;;;;7.05;4.85;;;;;;;22.75;68.55;95003.09;5032121;28;20041;-76
2021/07/25 11:23:05;;;;;;;9.45;4.78;;;;;;;23.18;67.24;94992.22;5033523;28;20052;-76
2021/07/25 11:25:37;;;;;;;8.35;4.63;;;;;;;23.47;69.61;94995.28;5048902;28;20033;-76
2021/07/25 11:28:09;;;;;;;7.85;4.78;;;;;;;23.93;66.48;94987.00;5043856;28;20041;-76
2021/07/25 11:30:49;;;;;;;19.08;7.88;;;;;;;23.74;66.05;94984.47;5033436;28;20033;-76
2021/07/25 11:33:37;;;;;;;32.67;12.18;;;;;;;23.44;68.36;94987.97;5038028;28;20094;-77